Time;durP1;ratioP1;P1;durP2;ratioP2;P2;SDS_P1;SDS_P2;PMS_P1;PMS_P2;Temp;Humidity;BMP_temperature;BMP_pressure;BME280_temperature;BME280_humidity;BME280_pressure;Samples;Min_cycle;Max_cycle;Signal;HPM_P1;HPM_P2
2022/10/19 00:00:47;;;;;;;12.00;7.20;;;;;;;;;;5051290;28;20488;-41
2022/10/19 00:03:13;;;;;;;12.83;7.10;;;;;;;;;;5050201;28;20555;-41
2022/10/19 00:05:39;;;;;;;13.73;6.30;;;;;;;;;;5051354;28;20877;-41
2022/10/19 00:08:05;;;;;;;9.00;6.00;;;;;;;;;;5049116;28;20417;-41
2022/10/19 00:10:31;;;;;;;12.27;6.10;;;;;;;;;;5051057;28;20835;-42
2022/10/19 00:12:57;;;;;;;7.80;6.00;;;;;;;;;;5050303;28;20413;-42
2022/10/19 00:15:24;;;;;;;7.93;5.80;;;;;;;;;;5051305;28;20456;-41
2022/10/19 00:17:49;;;;;;;8.40;6.17;;;;;;;;;;5051105;28;20538;-41
2022/10/19 00:20:15;;;;;;;11.50;6.97;;;;;;;;;;5054308;28;20466;-44
2022/10/19 00:22:41;;;;;;;13.90;8.37;;;;;;;;;;5053964;28;20449;-41
2022/10/19 00:25:08;;;;;;;17.33;7.30;;;;;;;;;;5054715;28;20413;-41
2022/10/19 00:27:34;;;;;;;38.63;7.30;;;;;;;;;;5055194;28;20526;-41
2022/10/19 00:30:00;;;;;;;18.37;7.33;;;;;;;;;;5054387;28;20428;-44
2022/10/19 00:32:26;;;;;;;22.73;9.47;;;;;;;;;;5054135;28;20401;-42
2022/10/19 00:34:52;;;;;;;23.10;8.20;;;;;;;;;;5054866;28;20408;-41
2022/10/19 00:37:18;;;;;;;27.63;9.50;;;;;;;;;;5054647;28;20422;-41
2022/10/19 00:39:44;;;;;;;22.67;8.50;;;;;;;;;;5054569;28;20429;-42
2022/10/19 00:42:11;;;;;;;78.10;9.80;;;;;;;;;;5053715;28;20457;-42
2022/10/19 00:44:37;;;;;;;87.53;9.70;;;;;;;;;;5054553;28;20410;-40
2022/10/19 00:47:04;;;;;;;79.67;11.00;;;;;;;;;;5054687;28;20423;-41
2022/10/19 00:49:32;;;;;;;70.17;10.30;;;;;;;;;;5054347;28;20427;-42
2022/10/19 00:52:03;;;;;;;22.53;8.43;;;;;;;;;;5053093;28;20407;-48
2022/10/19 00:54:31;;;;;;;22.20;9.50;;;;;;;;;;5054365;28;20487;-41
2022/10/19 00:56:58;;;;;;;17.40;8.07;;;;;;;;;;5054500;28;20436;-41
2022/10/19 00:59:24;;;;;;;17.40;8.17;;;;;;;;;;5054085;28;20927;-41
2022/10/19 01:01:51;;;;;;;37.60;9.50;;;;;;;;;;5053007;28;20467;-42
2022/10/19 01:04:19;;;;;;;115.90;10.47;;;;;;;;;;5053393;28;20485;-42
2022/10/19 01:06:45;;;;;;;56.67;9.63;;;;;;;;;;5053981;28;20881;-44
2022/10/19 01:09:11;;;;;;;76.43;9.20;;;;;;;;;;5053193;28;20798;-40
2022/10/19 01:11:57;;;;;;;59.87;9.20;;;;;;;;;;5053748;28;20398;-41
2022/10/19 01:14:26;;;;;;;50.20;8.30;;;;;;;;;;5053400;28;20456;-44
2022/10/19 01:16:52;;;;;;;117.23;10.60;;;;;;;;;;5054113;28;20404;-41
2022/10/19 01:19:36;;;;;;;73.93;8.43;;;;;;;;;;5052149;28;20571;-41
2022/10/19 01:22:08;;;;;;;63.67;8.17;;;;;;;;;;5049940;28;20497;-42
2022/10/19 01:24:41;;;;;;;32.30;8.03;;;;;;;;;;5074601;28;20490;-40
2022/10/19 01:27:26;;;;;;;33.27;8.00;;;;;;;;;;5074591;28;20470;-43
2022/10/19 01:30:04;;;;;;;21.07;7.50;;;;;;;;;;5073886;28;20850;-41
2022/10/19 01:32:52;;;;;;;18.67;6.70;;;;;;;;;;5072348;28;20971;-43
2022/10/19 01:35:26;;;;;;;28.93;6.90;;;;;;;;;;5073585;28;20495;-41
2022/10/19 01:38:01;;;;;;;29.37;7.40;;;;;;;;;;5074372;28;20894;-41
2022/10/19 01:40:30;;;;;;;31.87;7.37;;;;;;;;;;5074723;28;20489;-40
2022/10/19 01:42:56;;;;;;;43.33;7.07;;;;;;;;;;5055715;28;20467;-41
2022/10/19 01:45:35;;;;;;;17.23;6.47;;;;;;;;;;5073360;28;20416;-41
2022/10/19 01:48:02;;;;;;;12.93;6.70;;;;;;;;;;5073640;28;20866;-41
2022/10/19 01:50:33;;;;;;;21.87;6.77;;;;;;;;;;5053021;28;20416;-41
2022/10/19 01:52:59;;;;;;;22.07;6.73;;;;;;;;;;5052106;28;20423;-44
2022/10/19 01:55:26;;;;;;;61.50;8.67;;;;;;;;;;5053496;28;20393;-43
2022/10/19 01:57:55;;;;;;;12.90;7.33;;;;;;;;;;5053222;28;20835;-41
2022/10/19 02:00:22;;;;;;;13.30;6.67;;;;;;;;;;5053141;28;20409;-41
2022/10/19 02:02:53;;;;;;;45.63;8.20;;;;;;;;;;5051836;28;20464;-41
2022/10/19 02:05:20;;;;;;;21.63;7.07;;;;;;;;;;5053144;28;20462;-41
2022/10/19 02:07:49;;;;;;;22.10;7.80;;;;;;;;;;5053351;28;20405;-42
2022/10/19 02:10:15;;;;;;;23.07;7.50;;;;;;;;;;5052937;28;20922;-41
2022/10/19 02:12:41;;;;;;;15.93;6.33;;;;;;;;;;5051488;28;20420;-41
2022/10/19 02:15:13;;;;;;;14.10;6.17;;;;;;;;;;5052475;28;20420;-41
2022/10/19 02:17:43;;;;;;;19.03;7.63;;;;;;;;;;5053090;28;20420;-41
2022/10/19 02:20:11;;;;;;;33.20;8.57;;;;;;;;;;5052586;28;20769;-42
2022/10/19 02:22:37;;;;;;;28.77;8.47;;;;;;;;;;5051586;28;20974;-41
2022/10/19 02:25:03;;;;;;;29.67;7.60;;;;;;;;;;5052756;28;20486;-41
2022/10/19 02:27:31;;;;;;;18.83;8.47;;;;;;;;;;5052673;28;20918;-43
2022/10/19 02:29:57;;;;;;;26.03;8.10;;;;;;;;;;5052309;28;20937;-42
2022/10/19 02:32:23;;;;;;;27.53;8.20;;;;;;;;;;5051769;28;20481;-42
2022/10/19 02:34:49;;;;;;;21.23;8.13;;;;;;;;;;5052633;28;20412;-41
2022/10/19 02:37:17;;;;;;;30.60;8.30;;;;;;;;;;5052479;28;20415;-42
2022/10/19 02:39:43;;;;;;;18.87;7.00;;;;;;;;;;5032609;28;20434;-41
2022/10/19 02:42:11;;;;;;;17.53;7.23;;;;;;;;;;5030574;28;20454;-41
2022/10/19 02:44:37;;;;;;;10.90;7.33;;;;;;;;;;5051861;28;20415;-41
2022/10/19 02:47:15;;;;;;;26.67;8.40;;;;;;;;;;5052636;28;20506;-42
2022/10/19 02:49:41;;;;;;;19.93;7.63;;;;;;;;;;5052317;28;20435;-41
2022/10/19 02:52:08;;;;;;;12.13;7.50;;;;;;;;;;5051238;28;20419;-42
2022/10/19 02:54:34;;;;;;;32.67;7.60;;;;;;;;;;5051996;28;20413;-41
2022/10/19 02:57:00;;;;;;;19.30;7.60;;;;;;;;;;5052139;28;20408;-42
2022/10/19 02:59:26;;;;;;;17.37;7.33;;;;;;;;;;5052127;28;20494;-41
2022/10/19 03:01:52;;;;;;;21.13;6.77;;;;;;;;;;5051591;28;20778;-40
2022/10/19 03:04:18;;;;;;;13.40;6.70;;;;;;;;;;5051374;28;20428;-43
2022/10/19 03:06:44;;;;;;;10.10;6.37;;;;;;;;;;5051991;28;20408;-42
2022/10/19 03:09:10;;;;;;;9.53;6.10;;;;;;;;;;5050045;28;20486;-41
2022/10/19 03:11:37;;;;;;;23.23;7.27;;;;;;;;;;5051464;28;20427;-43
2022/10/19 03:14:04;;;;;;;28.57;6.20;;;;;;;;;;5038644;28;20435;-42
2022/10/19 03:16:30;;;;;;;12.70;5.90;;;;;;;;;;5032283;28;20789;-41
2022/10/19 03:18:56;;;;;;;34.87;6.70;;;;;;;;;;5047620;28;20446;-41
2022/10/19 03:21:22;;;;;;;19.43;6.70;;;;;;;;;;5051599;28;20913;-42
2022/10/19 03:23:48;;;;;;;21.33;6.97;;;;;;;;;;5060767;28;20434;-43
2022/10/19 03:26:15;;;;;;;28.50;7.07;;;;;;;;;;5071612;28;20419;-44
2022/10/19 03:28:41;;;;;;;47.43;7.47;;;;;;;;;;5056835;28;20448;-41
2022/10/19 03:31:07;;;;;;;22.17;6.70;;;;;;;;;;5051519;28;20422;-42
2022/10/19 03:33:33;;;;;;;14.40;6.13;;;;;;;;;;5050420;28;20420;-42
2022/10/19 03:36:17;;;;;;;34.43;6.43;;;;;;;;;;5051706;28;20465;-42
2022/10/19 03:38:43;;;;;;;14.63;6.20;;;;;;;;;;5050650;28;20443;-41
2022/10/19 03:41:09;;;;;;;26.50;6.50;;;;;;;;;;5051522;28;20403;-42
2022/10/19 03:43:37;;;;;;;19.43;6.63;;;;;;;;;;5057511;28;20508;-42
2022/10/19 03:46:05;;;;;;;21.30;6.43;;;;;;;;;;5070707;28;20411;-43
2022/10/19 03:48:30;;;;;;;35.30;6.33;;;;;;;;;;5071185;28;20471;-42
2022/10/19 03:51:04;;;;;;;40.40;7.60;;;;;;;;;;5060000;28;20413;-41
2022/10/19 03:53:30;;;;;;;16.90;6.43;;;;;;;;;;5049482;28;20411;-44
2022/10/19 03:56:06;;;;;;;24.73;5.87;;;;;;;;;;5055591;28;20403;-41
2022/10/19 03:58:37;;;;;;;30.47;6.53;;;;;;;;;;5055525;28;20430;-41
2022/10/19 04:01:06;;;;;;;19.20;7.33;;;;;;;;;;5055604;28;20410;-44
2022/10/19 04:03:32;;;;;;;9.40;6.50;;;;;;;;;;5053428;28;20983;-41
2022/10/19 04:06:04;;;;;;;44.83;8.20;;;;;;;;;;5055415;28;20435;-42
2022/10/19 04:08:30;;;;;;;20.03;7.00;;;;;;;;;;5054891;28;20435;-44
2022/10/19 04:11:00;;;;;;;15.00;7.73;;;;;;;;;;5055379;28;20400;-42
2022/10/19 04:13:27;;;;;;;8.50;6.40;;;;;;;;;;5054173;28;20862;-44
2022/10/19 04:15:53;;;;;;;12.70;7.50;;;;;;;;;;5055250;28;20780;-42
2022/10/19 04:18:19;;;;;;;20.17;7.33;;;;;;;;;;5054252;28;20972;-41
2022/10/19 04:20:45;;;;;;;10.40;7.70;;;;;;;;;;5055165;28;20499;-42
2022/10/19 04:23:11;;;;;;;10.73;6.40;;;;;;;;;;5053867;28;20457;-42
2022/10/19 04:25:38;;;;;;;14.80;7.00;;;;;;;;;;5055098;28;20449;-42
2022/10/19 04:28:04;;;;;;;11.63;5.80;;;;;;;;;;5054504;28;20781;-41
2022/10/19 04:30:30;;;;;;;41.27;7.03;;;;;;;;;;5054866;28;20893;-43
2022/10/19 04:32:56;;;;;;;20.67;7.00;;;;;;;;;;5053717;28;20403;-41
2022/10/19 04:35:22;;;;;;;9.00;6.90;;;;;;;;;;5054612;28;20415;-41
2022/10/19 04:37:48;;;;;;;12.43;7.10;;;;;;;;;;5055164;28;20408;-42
2022/10/19 04:40:14;;;;;;;12.60;7.13;;;;;;;;;;5055140;28;20931;-42
2022/10/19 04:42:40;;;;;;;12.50;7.57;;;;;;;;;;5048336;28;20465;-43
2022/10/19 04:45:06;;;;;;;16.13;6.90;;;;;;;;;;5055018;28;20421;-45
2022/10/19 04:47:32;;;;;;;26.00;7.47;;;;;;;;;;5054759;28;20407;-48
2022/10/19 04:49:58;;;;;;;24.73;7.90;;;;;;;;;;5053615;28;20812;-47
2022/10/19 04:52:24;;;;;;;9.07;7.53;;;;;;;;;;5053753;28;20842;-45
2022/10/19 04:54:50;;;;;;;11.40;7.20;;;;;;;;;;5054474;28;20417;-47
2022/10/19 04:57:16;;;;;;;45.27;8.67;;;;;;;;;;5054171;28;20434;-46
2022/10/19 04:59:41;;;;;;;28.60;8.07;;;;;;;;;;5054433;28;20462;-44
2022/10/19 05:02:07;;;;;;;14.13;7.70;;;;;;;;;;5053966;28;20510;-45
2022/10/19 05:04:33;;;;;;;24.37;8.83;;;;;;;;;;5050476;28;20429;-45
2022/10/19 05:06:59;;;;;;;18.70;8.50;;;;;;;;;;5054272;28;20416;-46
2022/10/19 05:09:25;;;;;;;19.90;7.90;;;;;;;;;;5051439;28;20436;-45
2022/10/19 05:11:51;;;;;;;10.93;7.07;;;;;;;;;;5052243;28;20466;-46
2022/10/19 05:14:17;;;;;;;28.60;7.93;;;;;;;;;;5061544;28;20464;-47
2022/10/19 05:16:43;;;;;;;14.37;6.77;;;;;;;;;;5074003;28;20446;-44
2022/10/19 05:19:13;;;;;;;15.17;7.40;;;;;;;;;;5071226;28;20438;-45
2022/10/19 05:21:39;;;;;;;10.13;7.30;;;;;;;;;;5046604;28;20416;-44
2022/10/19 05:24:05;;;;;;;26.50;7.00;;;;;;;;;;5053146;28;20840;-44
2022/10/19 05:26:31;;;;;;;9.00;6.87;;;;;;;;;;5053825;28;20719;-46
2022/10/19 05:29:00;;;;;;;15.13;7.40;;;;;;;;;;5051752;28;20437;-44
2022/10/19 05:31:27;;;;;;;9.53;7.00;;;;;;;;;;5052257;28;20412;-46
2022/10/19 05:33:55;;;;;;;24.23;7.80;;;;;;;;;;5052637;28;20407;-46
2022/10/19 05:36:25;;;;;;;18.10;8.20;;;;;;;;;;5052444;28;20400;-45
2022/10/19 05:38:51;;;;;;;14.90;7.47;;;;;;;;;;5055739;28;20719;-46
2022/10/19 05:41:18;;;;;;;25.07;8.90;;;;;;;;;;5050257;28;20423;-46
2022/10/19 05:43:45;;;;;;;18.27;8.20;;;;;;;;;;5051829;28;20822;-44
2022/10/19 05:46:12;;;;;;;13.33;7.80;;;;;;;;;;5052212;28;20851;-46
2022/10/19 05:48:38;;;;;;;18.73;7.60;;;;;;;;;;5033487;28;20428;-44
2022/10/19 05:51:05;;;;;;;13.63;6.60;;;;;;;;;;5052897;28;20879;-45
2022/10/19 05:53:32;;;;;;;11.00;6.90;;;;;;;;;;5051218;28;20407;-43
2022/10/19 05:55:58;;;;;;;12.60;6.60;;;;;;;;;;5052930;28;20428;-44
2022/10/19 05:58:24;;;;;;;27.93;7.87;;;;;;;;;;5052814;28;20427;-44
2022/10/19 06:00:53;;;;;;;9.47;6.97;;;;;;;;;;5051298;28;20511;-44
2022/10/19 06:03:20;;;;;;;11.17;7.67;;;;;;;;;;5050254;28;20461;-43
2022/10/19 06:05:46;;;;;;;23.43;6.77;;;;;;;;;;5059380;28;20412;-45
2022/10/19 06:08:12;;;;;;;12.23;8.07;;;;;;;;;;5050102;28;20409;-44
2022/10/19 06:10:38;;;;;;;10.83;7.27;;;;;;;;;;5048401;28;20981;-46
2022/10/19 06:13:04;;;;;;;17.27;8.50;;;;;;;;;;5050929;28;20779;-45
2022/10/19 06:15:32;;;;;;;11.63;8.23;;;;;;;;;;5051890;28;20892;-44
2022/10/19 06:17:58;;;;;;;16.53;9.20;;;;;;;;;;5051864;28;20525;-44
2022/10/19 06:20:25;;;;;;;26.60;9.80;;;;;;;;;;5047982;28;20975;-46
2022/10/19 06:22:51;;;;;;;19.73;10.03;;;;;;;;;;5052186;28;20962;-42
2022/10/19 06:25:17;;;;;;;28.53;9.87;;;;;;;;;;5052679;28;20427;-44
2022/10/19 06:27:43;;;;;;;16.50;11.20;;;;;;;;;;5052795;28;20727;-41
2022/10/19 06:30:10;;;;;;;26.60;10.20;;;;;;;;;;5052540;28;20431;-41
2022/10/19 06:32:35;;;;;;;33.80;10.90;;;;;;;;;;5053417;28;20460;-44
2022/10/19 06:35:02;;;;;;;15.93;9.63;;;;;;;;;;5052229;28;20459;-41
2022/10/19 06:37:28;;;;;;;12.57;9.00;;;;;;;;;;5052201;28;20931;-41
2022/10/19 06:39:54;;;;;;;12.50;8.33;;;;;;;;;;5052267;28;20944;-41
2022/10/19 06:42:20;;;;;;;29.70;8.97;;;;;;;;;;5051693;28;20503;-41
2022/10/19 06:44:46;;;;;;;21.33;8.70;;;;;;;;;;5051707;28;20415;-41
2022/10/19 06:47:12;;;;;;;15.47;7.23;;;;;;;;;;5051798;28;20484;-42
2022/10/19 06:49:37;;;;;;;21.83;8.07;;;;;;;;;;5051910;28;20432;-42
2022/10/19 06:52:06;;;;;;;26.63;8.00;;;;;;;;;;5051965;28;20420;-44
2022/10/19 06:54:32;;;;;;;15.80;11.00;;;;;;;;;;5051408;28;20806;-42
2022/10/19 06:56:58;;;;;;;22.23;8.20;;;;;;;;;;5052028;28;20406;-43
2022/10/19 06:59:24;;;;;;;22.03;8.80;;;;;;;;;;5052189;28;21017;-41
2022/10/19 07:01:50;;;;;;;10.40;8.37;;;;;;;;;;5051603;28;20400;-41
2022/10/19 07:04:16;;;;;;;19.33;7.70;;;;;;;;;;5051045;28;20435;-41
2022/10/19 07:06:42;;;;;;;14.93;8.10;;;;;;;;;;5051943;28;20404;-41
2022/10/19 07:09:08;;;;;;;11.03;7.80;;;;;;;;;;5051788;28;20417;-42
2022/10/19 07:11:33;;;;;;;14.83;7.27;;;;;;;;;;5052216;28;20408;-43
2022/10/19 07:13:59;;;;;;;21.37;7.83;;;;;;;;;;5050999;28;20409;-42
2022/10/19 07:16:25;;;;;;;56.03;9.30;;;;;;;;;;5051365;28;20410;-43
2022/10/19 07:18:52;;;;;;;24.77;8.00;;;;;;;;;;5051807;28;20939;-43
2022/10/19 07:21:19;;;;;;;13.10;8.00;;;;;;;;;;5052076;28;20405;-42
2022/10/19 07:23:46;;;;;;;33.47;8.50;;;;;;;;;;5050664;28;20467;-42
2022/10/19 07:26:22;;;;;;;28.23;9.13;;;;;;;;;;5051640;28;20409;-41
2022/10/19 07:28:48;;;;;;;27.73;7.50;;;;;;;;;;5050822;28;20536;-42
2022/10/19 07:31:19;;;;;;;12.10;8.43;;;;;;;;;;5051044;28;20409;-41
2022/10/19 07:33:45;;;;;;;40.43;10.17;;;;;;;;;;5050538;28;20412;-41
2022/10/19 07:36:12;;;;;;;31.13;9.60;;;;;;;;;;5051440;28;20913;-41
2022/10/19 07:38:38;;;;;;;20.73;8.50;;;;;;;;;;5051371;28;20501;-43
2022/10/19 07:41:06;;;;;;;16.27;9.37;;;;;;;;;;5051795;28;20489;-44
2022/10/19 07:43:32;;;;;;;17.93;9.50;;;;;;;;;;5050469;28;20457;-43
2022/10/19 07:45:58;;;;;;;11.80;9.30;;;;;;;;;;5051351;28;20440;-43
2022/10/19 07:48:24;;;;;;;14.93;9.37;;;;;;;;;;5051854;28;20486;-43
2022/10/19 07:50:50;;;;;;;17.67;9.60;;;;;;;;;;5051510;28;20908;-43
2022/10/19 07:53:16;;;;;;;9.73;7.77;;;;;;;;;;5050403;28;20420;-44
2022/10/19 07:55:42;;;;;;;13.07;9.57;;;;;;;;;;5051071;28;20470;-43
2022/10/19 07:58:08;;;;;;;15.50;9.63;;;;;;;;;;5050880;28;20452;-43
2022/10/19 08:00:34;;;;;;;15.53;9.70;;;;;;;;;;5051600;28;20432;-43
2022/10/19 08:03:00;;;;;;;12.37;10.13;;;;;;;;;;5050476;28;20468;-43
2022/10/19 08:05:26;;;;;;;12.90;9.50;;;;;;;;;;5051175;28;20401;-43
2022/10/19 08:07:52;;;;;;;14.30;10.07;;;;;;;;;;5051125;28;20460;-43
2022/10/19 08:10:18;;;;;;;13.70;9.67;;;;;;;;;;5051230;28;20429;-43
2022/10/19 08:12:44;;;;;;;15.40;10.00;;;;;;;;;;5049743;28;20405;-43
2022/10/19 08:15:10;;;;;;;14.77;10.27;;;;;;;;;;5051202;28;20428;-43
2022/10/19 08:17:36;;;;;;;11.27;9.73;;;;;;;;;;5050626;28;20731;-43
2022/10/19 08:20:02;;;;;;;17.67;8.60;;;;;;;;;;5054979;28;20920;-43
2022/10/19 08:22:28;;;;;;;12.80;9.57;;;;;;;;;;5069856;28;20984;-43
2022/10/19 08:24:54;;;;;;;16.33;10.37;;;;;;;;;;5070948;28;20417;-44
2022/10/19 08:27:20;;;;;;;17.43;10.47;;;;;;;;;;5070950;28;21097;-43
2022/10/19 08:29:46;;;;;;;13.67;9.97;;;;;;;;;;5058419;28;20948;-43
2022/10/19 08:32:12;;;;;;;15.93;9.70;;;;;;;;;;5050836;28;20397;-43
2022/10/19 08:34:38;;;;;;;15.13;10.67;;;;;;;;;;5050753;28;20409;-43
2022/10/19 08:37:04;;;;;;;16.00;9.60;;;;;;;;;;5050612;28;20844;-43
2022/10/19 08:39:30;;;;;;;20.17;10.30;;;;;;;;;;5047891;28;20446;-43
2022/10/19 08:42:04;;;;;;;13.30;9.40;;;;;;;;;;5053344;28;20968;-43
2022/10/19 08:44:42;;;;;;;15.53;8.20;;;;;;;;;;5053808;28;20452;-43
2022/10/19 08:47:11;;;;;;;12.73;7.63;;;;;;;;;;5067743;28;20468;-43
2022/10/19 08:49:37;;;;;;;12.23;7.13;;;;;;;;;;5054472;28;20473;-43
2022/10/19 08:52:12;;;;;;;10.10;6.40;;;;;;;;;;5054182;28;20534;-43
2022/10/19 08:54:58;;;;;;;8.57;6.47;;;;;;;;;;5053898;28;20403;-43
2022/10/19 08:57:39;;;;;;;10.97;6.17;;;;;;;;;;5034538;28;20559;-43
2022/10/19 09:00:23;;;;;;;13.70;6.03;;;;;;;;;;5035934;28;20443;-45
2022/10/19 09:02:58;;;;;;;9.33;5.23;;;;;;;;;;5052729;28;21036;-45
2022/10/19 09:05:38;;;;;;;7.13;4.80;;;;;;;;;;5053988;28;20382;-46
2022/10/19 09:08:04;;;;;;;10.60;4.27;;;;;;;;;;5054029;28;20498;-46
2022/10/19 09:10:32;;;;;;;4.10;3.57;;;;;;;;;;5054251;28;20385;-46
2022/10/19 09:13:00;;;;;;;6.87;3.97;;;;;;;;;;5052020;28;20798;-45
2022/10/19 09:15:47;;;;;;;9.83;4.27;;;;;;;;;;5058393;28;20420;-44
2022/10/19 09:18:22;;;;;;;6.07;3.53;;;;;;;;;;5073548;28;20401;-42
2022/10/19 09:20:49;;;;;;;5.57;2.97;;;;;;;;;;5073085;28;20905;-42
2022/10/19 09:23:29;;;;;;;5.87;3.23;;;;;;;;;;5072930;28;20910;-42
2022/10/19 09:25:55;;;;;;;3.37;2.70;;;;;;;;;;5074003;28;20421;-42
2022/10/19 09:28:40;;;;;;;5.27;3.50;;;;;;;;;;5073647;28;20995;-42
2022/10/19 09:31:10;;;;;;;6.63;2.50;;;;;;;;;;5073554;28;20410;-42
2022/10/19 09:33:38;;;;;;;9.27;2.53;;;;;;;;;;5067559;28;20854;-42
2022/10/19 09:36:05;;;;;;;6.70;2.67;;;;;;;;;;5053136;28;20419;-43
2022/10/19 09:38:31;;;;;;;12.10;2.40;;;;;;;;;;5053549;28;20433;-47
2022/10/19 09:40:58;;;;;;;3.37;1.93;;;;;;;;;;5060612;28;20420;-47
2022/10/19 09:43:26;;;;;;;3.77;2.03;;;;;;;;;;5072355;28;20454;-46
2022/10/19 09:46:03;;;;;;;6.27;2.27;;;;;;;;;;5073090;28;20908;-46
2022/10/19 09:48:47;;;;;;;3.00;1.80;;;;;;;;;;5073121;28;20423;-46
2022/10/19 09:51:14;;;;;;;2.33;1.43;;;;;;;;;;5072058;28;20416;-45
2022/10/19 09:53:50;;;;;;;5.43;1.60;;;;;;;;;;5072363;28;20869;-44
2022/10/19 09:56:18;;;;;;;2.43;2.23;;;;;;;;;;5073199;28;20495;-42
2022/10/19 09:58:51;;;;;;;4.50;2.00;;;;;;;;;;5072319;28;20503;-44
2022/10/19 10:01:31;;;;;;;3.93;1.70;;;;;;;;;;5072614;28;20400;-44
2022/10/19 10:04:07;;;;;;;2.40;1.23;;;;;;;;;;5071879;28;20468;-47
2022/10/19 10:06:34;;;;;;;2.33;1.60;;;;;;;;;;5072798;28;20807;-47
2022/10/19 10:09:00;;;;;;;2.37;1.77;;;;;;;;;;5072835;28;20428;-48
2022/10/19 10:11:26;;;;;;;2.60;1.50;;;;;;;;;;5072485;28;20747;-47
2022/10/19 10:13:53;;;;;;;6.30;1.70;;;;;;;;;;5071804;28;20420;-48
2022/10/19 10:16:23;;;;;;;5.90;1.50;;;;;;;;;;5071746;28;20454;-46
2022/10/19 10:18:49;;;;;;;1.87;1.67;;;;;;;;;;5072571;28;20424;-45
2022/10/19 10:21:19;;;;;;;3.23;1.37;;;;;;;;;;5072421;28;20410;-47
2022/10/19 10:23:57;;;;;;;6.17;1.80;;;;;;;;;;5072220;28;20449;-45
2022/10/19 10:26:25;;;;;;;10.00;3.00;;;;;;;;;;5072119;28;20869;-49
2022/10/19 10:28:51;;;;;;;2.10;1.80;;;;;;;;;;5057828;28;20442;-48
2022/10/19 10:31:24;;;;;;;3.33;1.87;;;;;;;;;;5053694;28;20417;-46
2022/10/19 10:33:54;;;;;;;4.67;2.17;;;;;;;;;;5043931;28;20484;-47
2022/10/19 10:36:23;;;;;;;6.93;2.17;;;;;;;;;;5052725;28;20420;-47
2022/10/19 10:38:54;;;;;;;4.50;1.77;;;;;;;;;;5052227;28;20499;-46
2022/10/19 10:41:27;;;;;;;6.23;1.90;;;;;;;;;;5051840;28;20419;-48
2022/10/19 10:43:59;;;;;;;7.23;1.90;;;;;;;;;;5051955;28;21032;-44
2022/10/19 10:46:32;;;;;;;3.70;1.73;;;;;;;;;;5052242;28;20406;-43
2022/10/19 10:48:59;;;;;;;6.53;1.77;;;;;;;;;;5052283;28;20416;-45
2022/10/19 10:51:31;;;;;;;2.60;1.90;;;;;;;;;;5048120;28;20414;-43
2022/10/19 10:54:16;;;;;;;7.13;1.93;;;;;;;;;;5031134;28;20402;-42
2022/10/19 10:56:43;;;;;;;3.53;1.60;;;;;;;;;;5040915;28;20405;-45
2022/10/19 10:59:22;;;;;;;5.63;2.07;;;;;;;;;;5051616;28;20413;-42
2022/10/19 11:01:58;;;;;;;3.03;1.90;;;;;;;;;;5051528;28;20401;-42
2022/10/19 11:04:28;;;;;;;2.30;1.90;;;;;;;;;;5051157;28;20425;-43
2022/10/19 11:07:00;;;;;;;5.47;1.97;;;;;;;;;;5051179;28;20405;-43
2022/10/19 11:09:49;;;;;;;6.67;2.03;;;;;;;;;;5051261;28;20498;-43
2022/10/19 11:12:16;;;;;;;9.37;3.50;;;;;;;;;;5040795;28;20417;-43
2022/10/19 11:14:56;;;;;;;4.13;2.60;;;;;;;;;;5050492;28;20432;-43
2022/10/19 11:17:24;;;;;;;3.80;2.40;;;;;;;;;;5054786;28;20811;-42
2022/10/19 11:19:51;;;;;;;8.37;2.40;;;;;;;;;;5049350;28;20869;-46
2022/10/19 11:22:16;;;;;;;4.27;1.83;;;;;;;;;;5049232;28;20992;-46
2022/10/19 11:24:57;;;;;;;3.03;2.33;;;;;;;;;;5049777;28;20419;-45
2022/10/19 11:27:39;;;;;;;3.77;1.50;;;;;;;;;;5050525;28;20463;-43
2022/10/19 11:30:08;;;;;;;9.80;1.60;;;;;;;;;;5050198;28;20921;-43
2022/10/19 11:32:46;;;;;;;3.07;1.77;;;;;;;;;;5050160;28;20417;-48
2022/10/19 11:35:35;;;;;;;9.23;1.83;;;;;;;;;;5051225;28;20412;-42
2022/10/19 11:38:15;;;;;;;3.67;1.80;;;;;;;;;;5051113;28;20428;-42
2022/10/19 11:41:07;;;;;;;2.47;1.27;;;;;;;;;;5050887;28;20401;-44
2022/10/19 11:43:59;;;;;;;2.17;1.50;;;;;;;;;;5029054;28;20477;-43
2022/10/19 11:46:36;;;;;;;4.63;1.60;;;;;;;;;;5032859;28;20409;-43
2022/10/19 11:49:03;;;;;;;3.53;1.50;;;;;;;;;;5071208;28;20561;-43
2022/10/19 11:51:31;;;;;;;2.40;1.43;;;;;;;;;;5070591;28;20405;-43
2022/10/19 11:54:12;;;;;;;7.90;1.63;;;;;;;;;;5070541;28;20493;-46
2022/10/19 11:56:49;;;;;;;2.73;1.30;;;;;;;;;;5071287;28;20507;-46
2022/10/19 11:59:21;;;;;;;2.80;1.50;;;;;;;;;;5071388;28;20912;-42
2022/10/19 12:02:01;;;;;;;3.30;2.57;;;;;;;;;;5070883;28;20412;-43
2022/10/19 12:04:50;;;;;;;3.60;1.70;;;;;;;;;;5070762;28;20420;-42
2022/10/19 12:07:26;;;;;;;1.60;1.30;;;;;;;;;;5071357;28;20495;-43
2022/10/19 12:09:52;;;;;;;7.00;1.70;;;;;;;;;;5071142;28;20452;-42
2022/10/19 12:12:23;;;;;;;2.57;1.30;;;;;;;;;;5070696;28;20852;-44
2022/10/19 12:14:51;;;;;;;1.90;1.47;;;;;;;;;;5072757;28;20408;-44
2022/10/19 12:17:25;;;;;;;3.20;1.80;;;;;;;;;;5075565;28;20416;-43
2022/10/19 12:19:54;;;;;;;4.43;1.73;;;;;;;;;;5075130;28;20426;-42
2022/10/19 12:22:24;;;;;;;3.93;1.57;;;;;;;;;;5074589;28;20456;-43
2022/10/19 12:24:54;;;;;;;3.70;1.60;;;;;;;;;;5055157;28;20509;-44
2022/10/19 12:27:24;;;;;;;4.10;1.67;;;;;;;;;;5054822;28;20401;-45
2022/10/19 12:29:51;;;;;;;2.77;1.73;;;;;;;;;;5054564;28;20413;-45
2022/10/19 12:32:19;;;;;;;3.97;1.70;;;;;;;;;;5054728;28;20417;-43
2022/10/19 12:34:50;;;;;;;5.17;1.93;;;;;;;;;;5051892;28;20428;-43
2022/10/19 12:37:35;;;;;;;7.00;2.00;;;;;;;;;;5053745;28;20788;-42
2022/10/19 12:40:21;;;;;;;3.53;1.70;;;;;;;;;;5054301;28;20844;-43
2022/10/19 12:42:59;;;;;;;2.00;1.10;;;;;;;;;;5049783;28;20457;-42
2022/10/19 12:45:30;;;;;;;8.17;1.90;;;;;;;;;;5054597;28;20401;-44
2022/10/19 12:48:11;;;;;;;2.40;1.60;;;;;;;;;;5054603;28;21151;-43
2022/10/19 12:50:52;;;;;;;6.10;1.43;;;;;;;;;;5054391;28;20946;-44
2022/10/19 12:53:26;;;;;;;2.77;1.60;;;;;;;;;;5053760;28;20435;-43
2022/10/19 12:56:06;;;;;;;2.60;1.37;;;;;;;;;;5054370;28;20401;-46
2022/10/19 12:58:52;;;;;;;3.33;2.20;;;;;;;;;;5056419;28;20429;-44
2022/10/19 13:01:42;;;;;;;5.70;1.90;;;;;;;;;;5055833;28;20420;-44
2022/10/19 13:04:10;;;;;;;5.90;1.70;;;;;;;;;;5054128;28;20464;-42
2022/10/19 13:06:37;;;;;;;6.10;1.70;;;;;;;;;;5054011;28;20401;-42
2022/10/19 13:09:07;;;;;;;2.50;1.50;;;;;;;;;;5054276;28;20417;-42
2022/10/19 13:11:35;;;;;;;3.40;1.97;;;;;;;;;;5054287;28;20408;-45
2022/10/19 13:14:03;;;;;;;1.70;1.60;;;;;;;;;;5053566;28;20398;-42
2022/10/19 13:16:29;;;;;;;5.50;1.90;;;;;;;;;;5054250;28;20939;-42
2022/10/19 13:19:13;;;;;;;2.50;1.57;;;;;;;;;;5054111;28;20425;-43
2022/10/19 13:21:44;;;;;;;2.90;1.80;;;;;;;;;;5052100;28;20459;-44
2022/10/19 13:24:20;;;;;;;5.70;1.60;;;;;;;;;;5072461;28;20458;-43
2022/10/19 13:26:46;;;;;;;3.83;1.67;;;;;;;;;;5073107;28;20396;-43
2022/10/19 13:29:25;;;;;;;3.97;1.57;;;;;;;;;;5073829;28;20428;-42
2022/10/19 13:31:51;;;;;;;3.30;1.40;;;;;;;;;;5071942;28;20396;-45
2022/10/19 13:34:17;;;;;;;4.90;1.80;;;;;;;;;;5073564;28;20445;-42
2022/10/19 13:37:12;;;;;;;5.23;1.63;;;;;;;;;;5063370;28;20401;-43
2022/10/19 13:39:38;;;;;;;2.60;1.90;;;;;;;;;;5049123;28;20441;-43
2022/10/19 13:42:04;;;;;;;3.80;1.73;;;;;;;;;;5053142;28;20444;-43
2022/10/19 13:44:34;;;;;;;5.53;1.70;;;;;;;;;;5053085;28;20394;-43
2022/10/19 13:47:08;;;;;;;3.37;1.57;;;;;;;;;;5053613;28;20408;-43
2022/10/19 13:49:56;;;;;;;2.53;1.63;;;;;;;;;;5053397;28;20440;-43
2022/10/19 13:52:41;;;;;;;4.37;1.83;;;;;;;;;;5052781;28;20413;-42
2022/10/19 13:55:27;;;;;;;3.93;2.20;;;;;;;;;;5053211;28;20408;-44
2022/10/19 13:58:12;;;;;;;4.73;1.77;;;;;;;;;;5053292;28;20409;-45
2022/10/19 14:00:52;;;;;;;3.57;1.80;;;;;;;;;;5053172;28;20432;-42
2022/10/19 14:03:22;;;;;;;2.07;1.57;;;;;;;;;;5052289;28;20833;-43
2022/10/19 14:06:01;;;;;;;3.33;1.53;;;;;;;;;;5053132;28;20451;-44
2022/10/19 14:08:29;;;;;;;3.80;1.93;;;;;;;;;;5053144;28;20429;-43
2022/10/19 14:11:03;;;;;;;2.70;1.40;;;;;;;;;;5053160;28;20452;-43
2022/10/19 14:13:29;;;;;;;4.40;1.90;;;;;;;;;;5052139;28;20421;-43
2022/10/19 14:15:56;;;;;;;5.50;2.10;;;;;;;;;;5053246;28;20432;-43
2022/10/19 14:18:27;;;;;;;5.47;2.00;;;;;;;;;;5053024;28;20492;-43
2022/10/19 14:21:01;;;;;;;5.90;2.30;;;;;;;;;;5053022;28;20409;-45
2022/10/19 14:23:31;;;;;;;3.47;1.60;;;;;;;;;;5051844;28;20452;-43
2022/10/19 14:26:02;;;;;;;2.13;1.70;;;;;;;;;;5053124;28;20413;-42
2022/10/19 14:28:28;;;;;;;5.73;2.03;;;;;;;;;;5052814;28;20517;-42
2022/10/19 14:30:55;;;;;;;2.90;2.00;;;;;;;;;;5052902;28;20455;-43
2022/10/19 14:33:24;;;;;;;4.43;1.70;;;;;;;;;;5044286;28;20468;-42
2022/10/19 14:35:50;;;;;;;5.63;2.30;;;;;;;;;;5031268;28;20756;-42
2022/10/19 14:38:18;;;;;;;8.20;2.10;;;;;;;;;;5041684;28;20909;-42
2022/10/19 14:40:44;;;;;;;2.90;1.50;;;;;;;;;;5052492;28;20405;-42
2022/10/19 14:43:24;;;;;;;6.30;2.13;;;;;;;;;;5051661;28;20489;-43
2022/10/19 14:46:06;;;;;;;3.57;1.70;;;;;;;;;;5052099;28;20428;-42
2022/10/19 14:48:32;;;;;;;4.70;1.77;;;;;;;;;;5051935;28;20483;-46